Time;durP1;ratioP1;P1;durP2;ratioP2;P2;SDS_P1;SDS_P2;PMS_P1;PMS_P2;Temp;Humidity;BMP_temperature;BMP_pressure;BME280_temperature;BME280_humidity;BME280_pressure;Samples;Min_cycle;Max_cycle;Signal;HPM_P1;HPM_P2
2022/01/12 05:13:55;;;;;;;14.70;7.03;;;;;;;-3.67;100.00;95474.16;6216069;23;20023;-80
2022/01/12 05:16:22;;;;;;;7.90;5.82;;;;;;;-3.90;100.00;95434.78;6177072;23;20008;-81
2022/01/12 05:18:51;;;;;;;8.70;6.55;;;;;;;-3.90;100.00;95452.47;6213181;23;20011;-81
2022/01/12 05:21:19;;;;;;;8.80;7.13;;;;;;;-3.78;100.00;95484.78;6201323;23;20005;-80
2022/01/12 05:23:45;;;;;;;10.80;7.25;;;;;;;-3.99;100.00;95454.63;6168001;23;20012;-80
2022/01/12 05:26:10;;;;;;;9.07;6.80;;;;;;;-3.81;100.00;95491.69;6224474;23;20048;-80
2022/01/12 05:28:38;;;;;;;9.73;7.55;;;;;;;-3.97;100.00;95468.81;6231880;23;19988;-80
2022/01/12 05:31:05;;;;;;;9.50;7.22;;;;;;;-3.86;100.00;95494.44;6219076;23;20012;-80
2022/01/12 05:33:31;;;;;;;10.07;6.95;;;;;;;-3.96;100.00;95488.19;6190286;23;20057;-79
2022/01/12 05:35:58;;;;;;;9.68;6.88;;;;;;;-3.96;100.00;95483.13;6218122;23;20001;-79
2022/01/12 05:38:24;;;;;;;11.68;6.30;;;;;;;-3.99;100.00;95478.19;6221387;23;20056;-81
2022/01/12 05:41:09;;;;;;;8.02;6.45;;;;;;;-4.10;100.00;95482.09;6235944;23;20358;-81
2022/01/12 05:43:37;;;;;;;8.63;6.68;;;;;;;-3.96;100.00;95498.28;6231995;23;20068;-81
2022/01/12 05:46:15;;;;;;;11.02;6.65;;;;;;;-4.11;100.00;95495.66;6200976;23;20008;-80
2022/01/12 05:51:28;;;;;;;8.50;6.18;;;;;;;-4.13;100.00;95495.69;6211106;23;20035;-82
2022/01/12 05:53:54;;;;;;;7.57;5.80;;;;;;;-4.19;100.00;95501.03;6230360;23;19996;-81
2022/01/12 06:01:30;;;;;;;11.38;6.38;;;;;;;-3.87;100.00;95552.66;6221127;22;20028;-79
2022/01/12 06:03:57;;;;;;;12.98;6.97;;;;;;;-4.08;100.00;95524.13;6222851;23;20477;-80
2022/01/12 06:24:28;;;;;;;11.80;7.80;;;;;;;-4.11;100.00;95552.06;6230163;22;20008;-80
2022/01/12 06:26:55;;;;;;;10.40;6.32;;;;;;;-3.64;100.00;95579.44;6215375;22;19997;-81
2022/01/12 06:31:53;;;;;;;10.68;7.20;;;;;;;-3.29;100.00;95556.66;6212688;23;20019;-81
2022/01/12 06:57:35;;;;;;;10.10;7.03;;;;;;;-2.76;100.00;95579.38;6223702;22;20012;-80
2022/01/12 07:25:52;;;;;;;8.00;6.20;;;;;;;-2.49;96.50;95609.34;6229363;22;20024;-78
2022/01/12 07:41:14;;;;;;;6.22;5.50;;;;;;;-0.77;86.29;95624.69;6225456;22;20357;-80
2022/01/12 07:43:39;;;;;;;6.32;5.53;;;;;;;-0.30;82.07;95621.97;6213892;23;20012;-79
2022/01/12 07:48:40;;;;;;;7.05;6.00;;;;;;;-0.19;82.33;95652.69;6226009;22;20024;-81
2022/01/12 07:53:41;;;;;;;5.25;4.75;;;;;;;0.13;80.23;95659.25;6236045;22;20025;-81
2022/01/12 07:56:57;;;;;;;5.90;5.30;;;;;;;0.73;76.45;95661.59;5099912;27;20420;-78
2022/01/12 07:59:23;;;;;;;6.60;4.88;;;;;;;1.53;73.29;95670.06;5078991;28;20035;-77
2022/01/12 08:01:48;;;;;;;5.60;5.07;;;;;;;2.07;66.32;95682.72;5075159;28;20444;-77
2022/01/12 08:04:13;;;;;;;7.63;5.78;;;;;;;2.17;68.65;95672.69;5077289;28;20056;-77
2022/01/12 08:06:39;;;;;;;6.10;5.50;;;;;;;5.11;54.80;95667.38;5054930;28;20681;-77
2022/01/12 08:09:07;;;;;;;5.28;4.75;;;;;;;6.74;51.20;95674.50;5079171;28;20493;-76
2022/01/12 08:11:33;;;;;;;4.82;4.32;;;;;;;3.45;53.93;95673.94;5060751;28;20485;-76
2022/01/12 08:13:59;;;;;;;5.65;5.15;;;;;;;4.94;52.93;95676.41;5067041;28;20020;-77
2022/01/12 08:16:24;;;;;;;7.13;4.93;;;;;;;6.55;50.17;95678.78;5082894;28;20031;-77
2022/01/12 08:18:50;;;;;;;6.40;4.95;;;;;;;4.73;52.16;95686.56;5079511;28;20033;-77
2022/01/12 08:21:15;;;;;;;6.43;5.70;;;;;;;4.24;56.72;95684.28;5064332;28;20477;-77
2022/01/12 08:23:41;;;;;;;5.03;4.63;;;;;;;1.32;64.71;95686.72;5058042;28;20024;-77
2022/01/12 08:26:07;;;;;;;5.38;4.82;;;;;;;3.78;56.55;95687.78;5086035;28;20021;-77
2022/01/12 08:28:32;;;;;;;5.15;4.65;;;;;;;0.02;68.55;95702.34;5082521;28;20020;-76
2022/01/12 08:30:58;;;;;;;5.30;4.82;;;;;;;4.36;53.82;95689.44;5084254;28;20032;-77
2022/01/12 08:33:23;;;;;;;4.60;4.13;;;;;;;1.85;61.18;95692.69;5082073;28;20032;-77
2022/01/12 08:35:49;;;;;;;6.20;4.85;;;;;;;3.93;55.67;95696.91;5074530;28;20028;-77
2022/01/12 08:38:14;;;;;;;4.63;4.22;;;;;;;2.21;60.18;95700.50;5085236;28;20056;-77
2022/01/12 08:40:41;;;;;;;5.10;4.60;;;;;;;0.13;69.96;95699.19;5054589;28;20025;-78
2022/01/12 08:43:07;;;;;;;4.60;4.18;;;;;;;2.79;61.17;95699.97;5062780;28;20024;-78
2022/01/12 08:45:33;;;;;;;4.35;3.80;;;;;;;2.25;63.86;95696.81;5099713;28;20024;-77
2022/01/12 08:47:59;;;;;;;5.32;4.82;;;;;;;4.79;54.47;95693.78;5083778;28;20032;-78
2022/01/12 08:50:24;;;;;;;5.22;4.72;;;;;;;4.36;54.37;95697.97;5065225;28;20024;-77
2022/01/12 08:52:50;;;;;;;5.25;4.75;;;;;;;5.92;52.13;95700.31;5083882;28;20063;-77
2022/01/12 08:55:18;;;;;;;5.15;4.65;;;;;;;4.12;59.60;95703.16;5082370;28;20071;-77
2022/01/12 08:57:44;;;;;;;4.43;4.03;;;;;;;4.67;52.62;95699.84;5076309;28;20381;-78
2022/01/12 09:00:10;;;;;;;4.10;3.72;;;;;;;6.58;48.45;95699.91;5061581;28;20043;-77
2022/01/12 09:02:36;;;;;;;5.15;4.20;;;;;;;6.55;47.19;95700.16;5074988;28;20107;-78
2022/01/12 09:05:03;;;;;;;7.50;4.25;;;;;;;5.50;51.34;95701.94;5062946;28;20579;-77
2022/01/12 09:07:29;;;;;;;4.65;4.25;;;;;;;6.80;47.52;95697.19;5075143;28;20107;-77
2022/01/12 09:09:54;;;;;;;5.20;4.57;;;;;;;3.02;55.20;95694.03;5064129;28;20068;-77
2022/01/12 09:12:20;;;;;;;5.38;4.88;;;;;;;1.41;62.44;95708.31;5067469;28;20040;-77
2022/01/12 09:14:45;;;;;;;4.65;4.25;;;;;;;3.77;56.16;95691.28;5069387;28;20130;-77
2022/01/12 09:17:17;;;;;;;4.10;3.70;;;;;;;2.72;56.45;95691.06;5048303;28;20032;-76
2022/01/12 09:19:43;;;;;;;4.72;4.22;;;;;;;5.72;50.88;95694.16;5068282;28;20052;-77
2022/01/12 09:22:09;;;;;;;4.50;3.97;;;;;;;5.76;48.90;95680.94;5068047;28;20024;-77
2022/01/12 09:24:35;;;;;;;4.45;4.05;;;;;;;6.49;48.46;95684.41;5068615;28;20028;-76
2022/01/12 09:27:00;;;;;;;4.70;4.30;;;;;;;5.48;47.30;95691.81;5042309;28;20094;-77
2022/01/12 09:29:26;;;;;;;4.55;4.15;;;;;;;5.74;49.31;95685.41;5064753;28;20439;-76
2022/01/12 09:31:52;;;;;;;4.25;3.92;;;;;;;1.82;58.11;95693.72;5065456;28;20059;-76
2022/01/12 09:34:18;;;;;;;4.82;4.32;;;;;;;6.46;48.92;95680.34;5047278;28;20059;-76
2022/01/12 09:36:43;;;;;;;4.10;3.70;;;;;;;6.06;47.43;95687.16;5065747;28;20052;-76
2022/01/12 09:39:09;;;;;;;3.97;3.67;;;;;;;4.86;52.77;95672.78;5057669;28;20037;-75
2022/01/12 09:41:35;;;;;;;4.38;3.97;;;;;;;5.97;48.85;95682.78;5069053;28;20558;-76
2022/01/12 09:44:02;;;;;;;4.93;4.03;;;;;;;1.67;59.63;95692.13;5063437;28;20105;-76
2022/01/12 09:46:35;;;;;;;4.30;3.90;;;;;;;3.44;54.03;95685.09;5068040;28;20028;-77
2022/01/12 09:49:03;;;;;;;4.28;3.88;;;;;;;2.46;60.55;95697.13;5068585;28;20033;-76
2022/01/12 09:51:29;;;;;;;4.47;4.07;;;;;;;1.56;61.80;95694.56;5066645;28;20036;-76
2022/01/12 09:53:56;;;;;;;4.20;3.90;;;;;;;1.75;59.56;95699.31;5069337;28;20409;-76
2022/01/12 09:56:24;;;;;;;5.32;4.82;;;;;;;2.76;63.09;95702.69;5064377;28;20056;-75
2022/01/12 09:58:51;;;;;;;4.78;4.38;;;;;;;1.53;63.72;95694.78;5066846;28;20046;-76
2022/01/12 10:01:35;;;;;;;4.50;4.10;;;;;;;0.55;66.38;95703.47;5066103;28;20533;-76
2022/01/12 10:04:08;;;;;;;4.47;3.95;;;;;;;-0.48;72.79;95705.22;5064538;28;20025;-76
2022/01/12 10:06:39;;;;;;;5.45;4.95;;;;;;;4.78;56.77;95702.41;5067580;28;20028;-76
2022/01/12 10:09:04;;;;;;;5.53;5.03;;;;;;;-0.23;70.55;95704.66;5066176;28;20050;-76
2022/01/12 10:11:30;;;;;;;6.30;4.60;;;;;;;-0.50;77.48;95717.19;5068375;28;20017;-76
2022/01/12 10:13:57;;;;;;;4.93;4.43;;;;;;;-0.87;80.61;95708.25;5065822;28;20024;-76
2022/01/12 10:16:26;;;;;;;5.47;4.97;;;;;;;-0.74;83.32;95719.34;5049736;28;20040;-76
2022/01/12 10:18:55;;;;;;;5.95;4.88;;;;;;;-0.78;83.08;95724.72;5048008;28;20041;-76
2022/01/12 10:21:37;;;;;;;8.40;5.10;;;;;;;-1.16;82.42;95717.44;5030118;28;20101;-77
2022/01/12 10:24:09;;;;;;;4.85;4.30;;;;;;;-0.88;81.03;95708.31;5048036;28;20022;-77
2022/01/12 10:26:43;;;;;;;7.88;5.40;;;;;;;0.12;80.58;95718.72;5047974;28;20065;-77
2022/01/12 10:29:08;;;;;;;5.00;4.50;;;;;;;3.06;61.38;95703.16;5047794;28;20033;-76
2022/01/12 10:31:52;;;;;;;5.35;4.70;;;;;;;1.15;68.62;95706.56;5048568;28;20037;-76
2022/01/12 10:34:20;;;;;;;5.57;5.03;;;;;;;3.20;57.01;95702.19;5047613;28;20037;-76
2022/01/12 10:36:47;;;;;;;4.82;4.20;;;;;;;3.03;58.18;95705.91;5031134;28;20029;-77
2022/01/12 10:39:14;;;;;;;4.55;4.15;;;;;;;0.18;66.41;95705.66;5046607;28;20032;-77
2022/01/12 10:42:04;;;;;;;4.90;4.43;;;;;;;-0.05;69.90;95685.78;5048259;28;20409;-77
2022/01/12 10:44:33;;;;;;;6.10;3.85;;;;;;;0.62;71.57;95694.53;5041911;28;20722;-77
2022/01/12 10:47:12;;;;;;;4.47;3.67;;;;;;;0.32;69.60;95695.44;5047324;28;20037;-77
2022/01/12 10:49:40;;;;;;;4.40;4.00;;;;;;;0.14;70.83;95704.19;5050161;28;20089;-77
2022/01/12 10:52:13;;;;;;;4.53;4.13;;;;;;;-0.12;70.40;95695.50;5047677;28;20040;-77
2022/01/12 10:54:53;;;;;;;4.22;3.75;;;;;;;0.03;72.01;95688.72;5048271;28;20086;-77
2022/01/12 10:57:30;;;;;;;4.47;3.78;;;;;;;0.67;72.58;95695.09;5046535;28;20097;-77
2022/01/12 11:00:05;;;;;;;4.50;3.80;;;;;;;0.47;69.94;95694.56;5047435;28;20116;-77
2022/01/12 11:02:32;;;;;;;3.90;3.50;;;;;;;0.07;70.96;95686.78;5049472;28;20021;-78
2022/01/12 11:04:58;;;;;;;4.53;4.10;;;;;;;0.44;70.60;95694.75;5043026;28;20032;-76
2022/01/12 11:07:29;;;;;;;6.75;4.47;;;;;;;0.06;70.07;95693.63;5050743;28;20046;-77
2022/01/12 11:09:57;;;;;;;4.03;3.63;;;;;;;-0.02;72.84;95683.88;5049869;28;20462;-76
2022/01/12 11:12:23;;;;;;;4.32;3.80;;;;;;;0.30;70.02;95691.38;5062222;28;20044;-77
2022/01/12 11:14:49;;;;;;;3.95;3.55;;;;;;;0.43;71.37;95690.56;5052609;28;20334;-76
2022/01/12 11:17:16;;;;;;;5.13;4.28;;;;;;;0.25;71.66;95683.19;5051513;28;20615;-76
2022/01/12 11:19:48;;;;;;;4.78;4.10;;;;;;;0.38;73.09;95690.03;5051998;28;20035;-76
2022/01/12 11:22:25;;;;;;;5.18;4.18;;;;;;;0.18;70.45;95690.38;5049514;28;20078;-77
2022/01/12 11:24:53;;;;;;;5.93;3.58;;;;;;;0.14;69.17;95696.53;5051374;28;20047;-76
2022/01/12 11:27:22;;;;;;;3.88;3.47;;;;;;;0.33;70.17;95691.19;5047647;28;20517;-76
2022/01/12 11:29:48;;;;;;;4.68;4.05;;;;;;;0.41;70.65;95687.28;5049427;28;20510;-76
2022/01/12 11:32:21;;;;;;;4.00;3.55;;;;;;;0.46;73.73;95684.44;5050673;28;20036;-76
2022/01/12 11:35:05;;;;;;;5.85;3.83;;;;;;;0.40;71.45;95687.38;5051237;28;20017;-76
2022/01/12 11:37:31;;;;;;;4.20;3.58;;;;;;;0.27;69.64;95691.53;5053782;28;20086;-76
2022/01/12 11:40:07;;;;;;;4.18;3.42;;;;;;;0.21;71.77;95697.81;5049272;28;20464;-76
2022/01/12 11:42:36;;;;;;;4.47;3.65;;;;;;;-0.09;70.66;95699.59;5052450;28;20527;-76
2022/01/12 11:45:03;;;;;;;4.05;3.67;;;;;;;0.17;70.29;95693.81;5057222;28;20040;-77
2022/01/12 11:47:31;;;;;;;6.07;3.25;;;;;;;-0.05;73.33;95706.97;5033251;28;20029;-76
2022/01/12 11:49:57;;;;;;;3.67;3.38;;;;;;;0.06;72.68;95708.91;5052906;28;20038;-77
2022/01/12 11:52:27;;;;;;;3.95;3.42;;;;;;;-0.24;71.36;95708.09;5066784;28;20411;-77
2022/01/12 11:55:11;;;;;;;4.20;3.40;;;;;;;-0.63;70.65;95709.44;5050626;28;20049;-77
2022/01/12 11:57:41;;;;;;;4.22;3.58;;;;;;;-0.81;72.62;95715.53;5051090;28;20032;-75
2022/01/12 12:00:12;;;;;;;4.00;3.63;;;;;;;-0.62;72.06;95723.78;5067212;28;20033;-77
2022/01/12 12:02:46;;;;;;;4.18;3.65;;;;;;;-0.63;72.13;95727.22;5048795;28;20245;-76
2022/01/12 12:05:17;;;;;;;4.72;3.55;;;;;;;-0.47;75.71;95729.75;5060198;28;20028;-76
2022/01/12 12:07:48;;;;;;;4.47;3.85;;;;;;;-0.62;73.40;95720.44;5052044;28;20078;-78
2022/01/12 12:10:16;;;;;;;4.15;3.75;;;;;;;-0.91;72.77;95728.81;5056801;28;20413;-75
2022/01/12 12:12:42;;;;;;;4.72;4.15;;;;;;;-0.86;73.60;95730.19;5048976;28;20036;-76
2022/01/12 12:15:09;;;;;;;4.93;3.85;;;;;;;-0.99;75.22;95736.84;5048203;28;20458;-76
2022/01/12 12:17:37;;;;;;;4.57;3.85;;;;;;;-0.92;76.26;95732.25;5065794;28;20029;-76
2022/01/12 12:20:05;;;;;;;5.22;4.32;;;;;;;-0.88;77.48;95739.66;5054601;28;20040;-76
2022/01/12 12:22:33;;;;;;;4.93;4.43;;;;;;;-0.78;74.86;95745.06;5052845;28;20052;-76
2022/01/12 12:25:09;;;;;;;4.53;4.13;;;;;;;-0.48;74.16;95738.28;5066528;28;20035;-76
2022/01/12 12:27:36;;;;;;;5.35;4.85;;;;;;;-0.16;76.79;95744.94;5064298;28;20044;-76
2022/01/12 12:30:05;;;;;;;6.18;5.00;;;;;;;-0.42;74.11;95732.03;5066323;28;20032;-76
2022/01/12 12:32:39;;;;;;;4.93;4.27;;;;;;;-0.49;74.64;95744.28;5047519;28;20029;-76
2022/01/12 12:35:06;;;;;;;4.88;4.20;;;;;;;-0.61;73.39;95742.41;5065550;28;20035;-76
2022/01/12 12:37:48;;;;;;;5.00;4.50;;;;;;;-0.90;71.85;95733.81;5065244;28;20119;-76
2022/01/12 12:40:28;;;;;;;4.75;3.95;;;;;;;-0.93;76.55;95736.50;5048242;28;20039;-75
2022/01/12 12:43:06;;;;;;;;;;;;;;;-1.06;76.29;95741.44;5052500;28;20024;-76
2022/01/12 12:45:59;;;;;;;5.10;4.57;;;;;;;-1.36;77.46;95740.50;5051090;28;20029;-76
2022/01/12 12:48:35;;;;;;;5.32;4.65;;;;;;;-1.27;78.94;95742.56;5048578;28;20063;-75
2022/01/12 12:51:08;;;;;;;5.45;4.95;;;;;;;-1.40;79.93;95749.19;5067162;28;20024;-76
2022/01/12 12:53:39;;;;;;;6.18;4.72;;;;;;;-1.52;79.70;95754.06;5067612;28;20032;-76
2022/01/12 12:56:07;;;;;;;4.75;4.25;;;;;;;-1.39;80.04;95742.38;5069329;28;20529;-77
2022/01/12 12:58:33;;;;;;;5.07;4.40;;;;;;;-1.37;81.74;95728.72;5051555;28;20463;-78
2022/01/12 13:01:14;;;;;;;5.63;4.75;;;;;;;-1.08;79.71;95752.59;5053268;28;20020;-77
2022/01/12 13:03:50;;;;;;;6.60;4.82;;;;;;;-1.07;80.37;95756.78;5065974;28;20035;-76
2022/01/12 13:06:27;;;;;;;5.38;4.85;;;;;;;-1.12;79.46;95759.53;5060637;28;20413;-77
2022/01/12 13:08:57;;;;;;;5.38;4.07;;;;;;;-1.17;77.97;95758.97;5069186;28;20507;-77
2022/01/12 13:11:37;;;;;;;7.25;4.70;;;;;;;-1.34;75.30;95760.72;5051499;28;20025;-77
2022/01/12 13:14:16;;;;;;;4.72;4.00;;;;;;;-1.24;77.15;95756.81;5053151;28;20024;-76
2022/01/12 13:16:48;;;;;;;6.22;5.20;;;;;;;-1.23;78.42;95768.63;5068844;28;20036;-76
2022/01/12 13:19:22;;;;;;;5.28;4.30;;;;;;;-1.43;77.74;95758.69;5067872;28;20065;-79
2022/01/12 13:21:48;;;;;;;4.85;4.35;;;;;;;-1.43;78.16;95762.03;5062098;28;20078;-76
2022/01/12 13:24:14;;;;;;;4.97;4.47;;;;;;;-1.34;79.82;95770.91;5067541;28;20020;-76
2022/01/12 13:26:40;;;;;;;5.95;4.75;;;;;;;-1.44;77.85;95767.19;5052213;28;20095;-76
2022/01/12 13:29:11;;;;;;;5.43;4.55;;;;;;;-1.54;77.68;95764.28;5067916;28;20122;-76
2022/01/12 13:31:38;;;;;;;5.35;4.47;;;;;;;-1.33;79.76;95772.53;5068314;28;20074;-76
2022/01/12 13:34:05;;;;;;;6.30;4.65;;;;;;;-1.53;78.21;95775.28;5069496;28;20436;-76
2022/01/12 13:36:33;;;;;;;5.47;4.85;;;;;;;-1.51;79.83;95779.41;5067483;28;20032;-76
2022/01/12 13:39:06;;;;;;;4.80;4.18;;;;;;;-1.72;78.71;95781.28;5052191;28;20039;-76
2022/01/12 13:41:42;;;;;;;6.28;4.90;;;;;;;-1.92;78.64;95766.22;5067502;28;20034;-76
2022/01/12 13:44:26;;;;;;;6.43;4.68;;;;;;;-2.06;78.04;95770.34;5049158;28;20413;-76
2022/01/12 13:47:09;;;;;;;6.40;5.47;;;;;;;-1.92;77.49;95786.50;5030887;28;20028;-76
2022/01/12 13:49:35;;;;;;;6.75;4.68;;;;;;;-1.88;78.75;95777.03;5031625;28;20035;-76
2022/01/12 13:52:06;;;;;;;5.60;5.03;;;;;;;-1.89;79.68;95793.16;5049800;28;20032;-76
2022/01/12 13:54:37;;;;;;;6.63;5.35;;;;;;;-2.08;80.30;95792.41;5047039;28;20127;-76
2022/01/12 13:57:05;;;;;;;7.03;5.25;;;;;;;-2.19;80.03;95801.38;5048952;28;20049;-76
2022/01/12 13:59:32;;;;;;;5.25;4.53;;;;;;;-2.23;82.00;95794.78;5047845;28;20091;-76
2022/01/12 14:01:59;;;;;;;5.82;4.93;;;;;;;-2.26;82.56;95802.56;5064578;28;20526;-76
2022/01/12 14:04:28;;;;;;;5.93;5.20;;;;;;;-2.24;83.91;95817.69;5035940;28;20086;-76
2022/01/12 14:06:59;;;;;;;8.10;6.00;;;;;;;-2.27;83.70;95811.03;5063013;28;20021;-77
2022/01/12 14:09:58;;;;;;;6.40;4.95;;;;;;;-2.38;81.23;95804.84;5054332;28;20029;-77
2022/01/12 14:12:17;;;;;;;5.25;4.68;;;;;;;-2.41;82.85;95825.28;5046037;28;20044;-77
2022/01/12 14:14:53;;;;;;;5.75;4.68;;;;;;;-2.52;83.06;95814.81;5039617;28;20509;-77
2022/01/12 14:17:24;;;;;;;6.63;4.90;;;;;;;-2.45;84.83;95823.78;5069462;28;20021;-77
2022/01/12 14:19:57;;;;;;;7.90;6.28;;;;;;;-2.47;84.18;95826.34;5066384;28;20433;-77
2022/01/12 14:22:24;;;;;;;6.43;5.13;;;;;;;-2.52;84.76;95819.88;5069362;28;20107;-77
2022/01/12 14:24:55;;;;;;;7.93;6.10;;;;;;;-2.58;84.11;95823.50;5049560;28;20032;-77
2022/01/12 14:27:20;;;;;;;8.75;5.68;;;;;;;-2.66;84.42;95826.38;5066276;28;20024;-77
2022/01/12 14:29:46;;;;;;;7.85;6.72;;;;;;;-2.64;85.53;95828.88;5067088;28;20036;-77
2022/01/12 14:32:11;;;;;;;7.35;6.10;;;;;;;-2.66;86.35;95825.56;5067174;28;20024;-78
2022/01/12 14:34:37;;;;;;;6.55;5.57;;;;;;;-2.63;85.62;95837.28;5060080;28;20049;-77
2022/01/12 14:37:02;;;;;;;9.75;6.35;;;;;;;-2.86;85.11;95818.84;5046951;28;20119;-79
2022/01/12 14:39:28;;;;;;;7.47;6.22;;;;;;;-2.80;86.05;95827.91;5061876;28;20024;-78
2022/01/12 14:41:56;;;;;;;8.00;5.55;;;;;;;-2.78;86.21;95826.13;5067918;28;20078;-78
2022/01/12 14:44:27;;;;;;;7.10;5.43;;;;;;;-2.84;84.24;95831.47;5066542;28;20047;-79
2022/01/12 14:46:52;;;;;;;7.60;5.63;;;;;;;-2.88;82.70;95825.72;5041720;28;20052;-79
2022/01/12 14:49:18;;;;;;;6.80;6.10;;;;;;;-3.03;84.04;95823.03;5046098;28;20485;-78
2022/01/12 14:51:43;;;;;;;7.32;6.40;;;;;;;-3.00;84.89;95828.81;5031377;28;20531;-77
2022/01/12 14:54:09;;;;;;;8.25;6.07;;;;;;;-3.01;83.75;95837.28;5044913;28;20024;-77
2022/01/12 14:56:34;;;;;;;6.47;5.03;;;;;;;-3.03;83.20;95835.72;5049159;28;20066;-77
2022/01/12 14:59:00;;;;;;;8.13;5.35;;;;;;;-3.03;83.60;95845.84;5047253;28;20017;-77
2022/01/12 15:01:25;;;;;;;7.47;5.55;;;;;;;-3.05;86.74;95852.69;5047632;28;20032;-79
2022/01/12 15:03:51;;;;;;;7.75;5.40;;;;;;;-3.19;86.05;95850.75;5047893;28;20029;-79
2022/01/12 15:06:16;;;;;;;7.25;5.65;;;;;;;-3.34;86.84;95841.28;5036975;28;20029;-79
2022/01/12 15:08:42;;;;;;;6.75;5.95;;;;;;;-3.25;86.55;95853.56;5039729;28;20021;-79
2022/01/12 15:11:07;;;;;;;7.70;5.55;;;;;;;-3.34;86.24;95841.28;5044912;28;20120;-79
2022/01/12 15:13:51;;;;;;;6.20;5.20;;;;;;;-3.38;87.03;95847.38;5056942;28;20014;-80
2022/01/12 15:16:17;;;;;;;8.77;6.50;;;;;;;-3.37;87.63;95861.66;5031268;28;20033;-80
2022/01/12 15:18:43;;;;;;;10.35;7.05;;;;;;;-3.46;87.61;95859.50;5041222;28;20029;-80
2022/01/12 15:21:08;;;;;;;11.32;7.22;;;;;;;-3.53;87.56;95843.75;5046110;28;20036;-80
2022/01/12 15:23:42;;;;;;;8.50;6.68;;;;;;;-3.37;86.75;95857.41;5031806;28;20467;-80
2022/01/12 15:26:18;;;;;;;9.63;6.28;;;;;;;-3.36;86.08;95865.81;5030093;28;20073;-78
2022/01/12 15:29:22;;;;;;;6.68;5.63;;;;;;;-3.45;85.95;95872.09;5042865;28;20089;-79
2022/01/12 15:31:48;;;;;;;7.40;6.05;;;;;;;-3.53;84.74;95868.25;5043915;28;20069;-80
2022/01/12 15:34:13;;;;;;;8.88;5.72;;;;;;;-3.46;83.72;95874.69;5034599;28;20021;-79
2022/01/12 15:36:38;;;;;;;13.00;6.15;;;;;;;-3.53;85.03;95876.66;5047606;28;20036;-80
2022/01/12 15:39:06;;;;;;;7.53;5.45;;;;;;;-3.63;86.84;95874.59;5025533;28;20024;-80
2022/01/12 15:41:32;;;;;;;8.18;5.88;;;;;;;-3.70;88.28;95874.00;5041621;28;20026;-81
2022/01/12 15:43:58;;;;;;;7.88;6.07;;;;;;;-3.76;88.93;95881.84;5060134;28;20044;-81
2022/01/12 15:46:23;;;;;;;11.48;6.85;;;;;;;-3.86;89.04;95883.94;5048205;28;20025;-81
2022/01/12 15:48:51;;;;;;;10.20;7.35;;;;;;;-3.96;90.03;95877.59;5058087;28;20026;-81
2022/01/12 15:51:16;;;;;;;7.75;6.03;;;;;;;-3.96;87.89;95875.06;5047516;28;20040;-81
2022/01/12 15:53:44;;;;;;;8.82;6.43;;;;;;;-3.86;87.98;95888.97;5074615;28;20025;-81
2022/01/12 15:56:09;;;;;;;9.90;7.18;;;;;;;-3.77;87.20;95895.38;5057300;28;20049;-81
2022/01/12 15:58:35;;;;;;;10.95;7.07;;;;;;;-3.62;87.09;95898.97;5071123;28;20029;-81
2022/01/12 16:01:07;;;;;;;11.00;7.80;;;;;;;-3.74;88.30;95898.59;5060483;28;20029;-81
2022/01/12 16:03:32;;;;;;;9.48;7.75;;;;;;;-3.70;88.69;95898.47;5044852;28;20017;-80
2022/01/12 16:05:58;;;;;;;9.93;6.80;;;;;;;-3.77;87.74;95903.78;5055483;28;20498;-80
2022/01/12 16:08:24;;;;;;;8.82;6.85;;;;;;;-3.94;89.49;95910.38;5074451;28;20025;-81
2022/01/12 16:10:52;;;;;;;8.50;6.30;;;;;;;-3.91;90.37;95907.72;5050165;28;20059;-79
2022/01/12 16:13:19;;;;;;;11.63;7.80;;;;;;;-3.88;89.66;95910.97;5067354;28;20037;-79
2022/01/12 16:15:47;;;;;;;10.45;7.20;;;;;;;-4.04;90.35;95906.56;5051084;28;20040;-79
2022/01/12 16:18:14;;;;;;;14.82;7.53;;;;;;;-4.15;90.63;95899.41;5048301;28;20033;-79
2022/01/12 16:20:39;;;;;;;11.00;7.32;;;;;;;-4.28;92.16;95910.88;5019176;28;20032;-79
2022/01/12 16:23:05;;;;;;;10.50;7.70;;;;;;;-4.24;94.08;95919.16;5033217;28;20022;-79
2022/01/12 16:25:31;;;;;;;11.85;8.40;;;;;;;-4.12;93.62;95921.22;5035792;28;20039;-79
2022/01/12 16:27:57;;;;;;;15.40;7.40;;;;;;;-4.21;92.81;95921.59;5031756;28;20112;-79
2022/01/12 16:30:59;;;;;;;9.40;7.25;;;;;;;-4.28;93.54;95921.00;5046215;28;20112;-79
2022/01/12 16:33:31;;;;;;;14.43;8.10;;;;;;;-4.38;93.86;95914.63;5062826;28;20068;-80
2022/01/12 16:35:58;;;;;;;30.30;14.60;;;;;;;-4.43;93.88;95919.84;5060536;28;20033;-80
2022/01/12 16:38:24;;;;;;;67.88;31.30;;;;;;;-4.48;94.05;95928.47;5056969;28;20033;-80
2022/01/12 16:40:58;;;;;;;74.63;33.60;;;;;;;-4.49;95.57;95925.13;5050507;28;20018;-79
2022/01/12 16:43:37;;;;;;;32.10;18.13;;;;;;;-4.61;97.45;95937.38;5084351;28;20029;-79
2022/01/12 16:46:07;;;;;;;46.72;23.95;;;;;;;-4.90;98.29;95915.69;5056360;28;20040;-81
2022/01/12 16:48:33;;;;;;;38.33;21.83;;;;;;;-4.94;98.99;95914.16;5042702;28;20032;-80
2022/01/12 16:51:00;;;;;;;39.97;22.50;;;;;;;-5.02;99.59;95894.25;5051502;28;20026;-80
2022/01/12 16:53:25;;;;;;;45.65;23.25;;;;;;;-5.10;100.00;95898.72;5064389;28;20040;-81
2022/01/12 17:06:35;;;;;;;22.50;12.65;;;;;;;-4.59;98.82;95961.72;5044334;28;20049;-82
2022/01/12 17:09:00;;;;;;;24.08;15.18;;;;;;;-4.72;98.36;95950.44;5040878;28;20033;-81
2022/01/12 17:14:01;;;;;;;16.67;11.82;;;;;;;-5.13;97.51;95911.47;5029764;26;20048;-78
2022/01/12 17:16:42;;;;;;;60.33;31.58;;;;;;;-4.77;97.56;95967.41;5027468;28;20033;-77
2022/01/12 17:19:25;;;;;;;42.45;25.30;;;;;;;-4.81;97.31;95956.59;5045596;28;20025;-82
2022/01/12 17:21:52;;;;;;;29.67;18.67;;;;;;;-4.93;98.16;95936.84;5022316;28;20494;-79
2022/01/12 17:24:23;;;;;;;17.85;11.98;;;;;;;-4.68;96.88;95951.09;5056709;28;20060;-80
2022/01/12 17:27:08;;;;;;;14.07;8.80;;;;;;;-4.95;96.66;95937.78;5034019;28;20068;-79
2022/01/12 17:29:34;;;;;;;12.68;7.05;;;;;;;-5.05;97.08;95937.28;5019073;28;20029;-78
2022/01/12 17:32:00;;;;;;;15.27;8.52;;;;;;;-4.66;94.49;95956.94;5048151;28;20029;-79
2022/01/12 17:34:27;;;;;;;9.63;6.95;;;;;;;-4.63;93.16;95954.31;5027067;28;20064;-77
2022/01/12 17:37:02;;;;;;;8.23;5.25;;;;;;;-4.58;92.36;95955.78;5025702;28;20083;-78
2022/01/12 17:39:42;;;;;;;12.27;6.30;;;;;;;-4.57;93.12;95959.97;5030041;28;20091;-77
2022/01/12 17:42:10;;;;;;;14.63;5.50;;;;;;;-4.69;92.41;95944.44;5009776;28;20058;-77
2022/01/12 17:44:39;;;;;;;7.18;5.28;;;;;;;-4.62;92.47;95949.19;5020589;28;20140;-77
2022/01/12 17:47:08;;;;;;;6.38;4.82;;;;;;;-4.64;93.18;95952.66;5046685;28;20484;-77
2022/01/12 17:50:07;;;;;;;6.03;5.15;;;;;;;-4.67;92.58;95957.81;5030206;28;20044;-78
2022/01/12 17:52:19;;;;;;;8.98;5.03;;;;;;;-4.62;91.89;95961.81;5028954;28;20087;-77
2022/01/12 17:54:45;;;;;;;6.63;5.20;;;;;;;-4.66;92.35;95955.25;5009858;28;20030;-77
2022/01/12 17:57:11;;;;;;;6.97;5.03;;;;;;;-4.76;92.61;95971.59;5006992;28;20062;-77
2022/01/12 17:59:37;;;;;;;6.55;5.35;;;;;;;-4.69;92.97;95974.75;5046214;28;20025;-77
2022/01/12 18:02:02;;;;;;;8.27;5.55;;;;;;;-4.74;92.63;95974.06;5029794;28;20026;-77
2022/01/12 18:04:28;;;;;;;7.90;4.85;;;;;;;-4.55;90.90;95986.00;5030814;28;20057;-77
2022/01/12 18:06:53;;;;;;;8.73;5.05;;;;;;;-4.66;90.88;95985.56;5030138;28;20056;-77
2022/01/12 18:09:19;;;;;;;6.35;4.90;;;;;;;-4.68;92.07;95982.25;5030433;28;20032;-78
2022/01/12 18:11:44;;;;;;;6.68;5.15;;;;;;;-4.70;91.99;95998.34;5029199;28;20025;-78
2022/01/12 18:14:10;;;;;;;7.82;5.45;;;;;;;-4.75;92.25;95990.91;5025412;28;20467;-78
2022/01/12 18:16:38;;;;;;;7.35;5.40;;;;;;;-4.73;92.39;95990.88;5023169;28;20499;-78
2022/01/12 18:22:00;;;;;;;8.98;6.07;;;;;;;-4.77;93.16;95997.72;5035808;28;20036;-80
2022/01/12 18:24:26;;;;;;;9.95;7.22;;;;;;;-4.74;92.35;95987.50;5053277;28;20029;-79
2022/01/12 18:26:51;;;;;;;9.00;7.15;;;;;;;-4.81;92.73;95994.47;5028786;28;20470;-79
2022/01/12 18:29:17;;;;;;;9.30;5.80;;;;;;;-4.75;93.29;95998.50;5029639;28;20033;-79
2022/01/12 18:31:43;;;;;;;18.20;10.57;;;;;;;-4.81;94.73;95997.00;5017091;28;20148;-79
2022/01/12 18:34:42;;;;;;;21.10;13.40;;;;;;;-5.01;95.74;95984.22;5047306;28;20020;-81
2022/01/12 18:37:07;;;;;;;17.70;10.65;;;;;;;-4.83;96.13;95998.78;5020116;28;20469;-77
2022/01/12 18:39:34;;;;;;;17.42;9.60;;;;;;;-4.79;96.01;95994.44;5029196;28;20083;-77
2022/01/12 18:42:00;;;;;;;13.90;9.38;;;;;;;-4.72;95.37;96007.69;5036417;28;20508;-77
2022/01/12 18:44:26;;;;;;;19.15;9.40;;;;;;;-4.75;95.95;96007.78;5038790;28;20025;-78
2022/01/12 18:49:44;;;;;;;25.33;14.27;;;;;;;-4.46;95.96;96007.56;5044852;23;20532;-79
2022/01/12 18:52:10;;;;;;;38.20;20.98;;;;;;;-4.71;96.59;96009.31;5031267;28;20041;-79